createdAt,value
2022-08-03T00:00:26.973Z,96343.97
2022-08-03T00:02:54.015Z,96342.97
2022-08-03T00:05:21.039Z,96337.19
2022-08-03T00:07:48.515Z,96346.84
2022-08-03T00:10:16.279Z,96337.50
2022-08-03T00:12:42.958Z,96351.16
2022-08-03T00:15:15.059Z,96337.97
2022-08-03T00:17:52.518Z,96344.72
2022-08-03T00:20:20.014Z,96336.53
2022-08-03T00:22:46.691Z,96338.75
2022-08-03T00:25:13.788Z,96334.66
2022-08-03T00:27:40.395Z,96340.13
2022-08-03T00:30:07.749Z,96333.06
2022-08-03T00:32:34.363Z,96337.31
2022-08-03T00:35:01.032Z,96339.13
2022-08-03T00:37:41.617Z,96333.22
2022-08-03T00:40:11.786Z,96328.63
2022-08-03T00:42:50.638Z,96326.63
2022-08-03T00:45:18.676Z,96333.22
2022-08-03T00:47:45.844Z,96335.84
2022-08-03T00:50:12.961Z,96328.63
2022-08-03T00:52:40.321Z,96337.25
2022-08-03T00:55:07.301Z,96334.91
2022-08-03T00:57:34.067Z,96340.19
2022-08-03T01:00:01.211Z,96335.16
2022-08-03T01:02:29.427Z,96338.53
2022-08-03T01:04:56.593Z,96338.53
2022-08-03T01:07:31.737Z,96337.75
2022-08-03T01:10:06.438Z,96343.84
2022-08-03T01:12:44.090Z,96342.84
2022-08-03T01:15:21.670Z,96336.72
2022-08-03T01:17:56.311Z,96347.63
2022-08-03T01:20:25.152Z,96345.63
2022-08-03T01:22:54.822Z,96339.81
2022-08-03T01:29:11.257Z,96333.59
2022-08-03T01:33:00.127Z,96332.97
2022-08-03T01:34:41.295Z,96322.97
2022-08-03T01:37:11.023Z,96328.94
2022-08-03T01:39:41.115Z,96327.75
2022-08-03T01:42:11.680Z,96323.66
2022-08-03T01:44:41.797Z,96323.16
2022-08-03T01:47:10.033Z,96323.00
2022-08-03T01:49:43.411Z,96325.00
2022-08-03T01:52:11.588Z,96325.13
2022-08-03T01:54:43.318Z,96317.53
2022-08-03T01:57:10.843Z,96321.41
2022-08-03T01:59:39.481Z,96318.25
2022-08-03T02:02:28.277Z,96312.03
2022-08-03T02:04:57.767Z,96323.41
2022-08-03T02:07:26.937Z,96324.41
2022-08-03T02:09:55.628Z,96312.56
2022-08-03T02:12:25.142Z,96309.91
2022-08-03T02:14:52.049Z,96318.88
2022-08-03T02:17:39.603Z,96323.09
2022-08-03T02:20:08.866Z,96312.28
2022-08-03T02:22:39.225Z,96311.50
2022-08-03T02:25:08.532Z,96305.69
2022-08-03T02:27:43.184Z,96312.34
2022-08-03T02:30:12.487Z,96304.59
2022-08-03T02:32:41.082Z,96309.19
2022-08-03T02:35:12.658Z,96301.53
2022-08-03T02:37:49.861Z,96311.88
2022-08-03T02:40:19.032Z,96312.94
2022-08-03T02:42:47.269Z,96312.34
2022-08-03T02:45:16.811Z,96314.53
2022-08-03T02:47:54.495Z,96311.28
2022-08-03T02:50:23.248Z,96311.09
2022-08-03T02:52:51.353Z,96314.97
2022-08-03T02:55:21.708Z,96306.28
2022-08-03T02:57:49.978Z,96310.41
2022-08-03T03:00:19.436Z,96308.47
2022-08-03T03:02:56.973Z,96309.69
2022-08-03T03:05:54.961Z,96307.25
2022-08-03T03:08:18.707Z,96303.13
2022-08-03T03:10:49.011Z,96304.50
2022-08-03T03:13:22.630Z,96311.34
2022-08-03T03:15:50.928Z,96302.06
2022-08-03T03:18:22.222Z,96309.53
2022-08-03T03:20:51.625Z,96308.28
2022-08-03T03:23:20.324Z,96314.34
2022-08-03T03:25:47.077Z,96303.25
2022-08-03T03:28:14.625Z,96309.41
2022-08-03T03:30:41.999Z,96308.97
2022-08-03T03:33:08.884Z,96307.13
2022-08-03T03:35:38.818Z,96315.75
2022-08-03T03:38:06.906Z,96316.44
2022-08-03T03:40:35.732Z,96318.69
2022-08-03T03:43:03.298Z,96317.84
2022-08-03T03:45:31.766Z,96318.28
2022-08-03T03:48:00.551Z,96321.88
2022-08-03T03:50:28.222Z,96315.19
2022-08-03T03:52:54.902Z,96324.06
2022-08-03T03:55:21.687Z,96314.91
2022-08-03T03:57:48.342Z,96313.09
2022-08-03T04:00:17.185Z,96313.31
2022-08-03T04:02:44.821Z,96323.16
2022-08-03T04:05:30.622Z,96325.38
2022-08-03T04:08:24.374Z,96324.66
2022-08-03T04:10:59.608Z,96323.03
2022-08-03T04:13:49.264Z,96323.44
2022-08-03T04:16:19.775Z,96328.53
2022-08-03T04:18:50.572Z,96327.63
2022-08-03T04:21:21.520Z,96333.81
2022-08-03T04:23:51.407Z,96322.44
2022-08-03T04:26:21.595Z,96334.56
2022-08-03T04:28:50.531Z,96328.31
2022-08-03T04:31:20.531Z,96333.06
2022-08-03T04:33:48.613Z,96335.09
2022-08-03T04:36:20.984Z,96329.41
2022-08-03T04:38:57.251Z,96344.03
2022-08-03T04:41:26.615Z,96339.97
2022-08-03T04:43:56.227Z,96339.50
2022-08-03T04:46:26.327Z,96337.13
2022-08-03T04:48:53.714Z,96340.41
2022-08-03T04:51:21.171Z,96338.56
2022-08-03T04:53:48.131Z,96342.09
2022-08-03T04:56:14.807Z,96342.09
2022-08-03T04:58:41.638Z,96336.84
2022-08-03T05:01:08.362Z,96342.56
2022-08-03T05:03:35.150Z,96340.44
2022-08-03T05:06:11.077Z,96349.16
2022-08-03T05:08:45.996Z,96344.34
2022-08-03T05:11:13.366Z,96342.53
2022-08-03T05:13:40.019Z,96342.78
2022-08-03T05:16:06.662Z,96340.56
2022-08-03T05:18:33.739Z,96342.25
2022-08-03T05:21:00.399Z,96340.25
2022-08-03T05:23:27.226Z,96331.25
2022-08-03T05:25:53.862Z,96343.09
2022-08-03T05:28:20.604Z,96340.47
2022-08-03T05:30:47.270Z,96336.69
2022-08-03T05:33:13.945Z,96338.34
2022-08-03T05:35:57.366Z,96334.25
2022-08-03T05:38:28.736Z,96336.94
2022-08-03T05:41:22.294Z,96337.53
2022-08-03T05:43:47.907Z,96333.06
2022-08-03T05:46:14.645Z,96337.81
2022-08-03T05:48:42.466Z,96330.50
2022-08-03T05:51:11.850Z,96337.53
2022-08-03T05:53:39.669Z,96328.63
2022-08-03T05:56:13.714Z,96330.75
2022-08-03T05:58:46.403Z,96326.56
2022-08-03T06:01:13.398Z,96325.22
2022-08-03T06:03:40.249Z,96321.38
2022-08-03T06:06:06.977Z,96321.81
2022-08-03T06:08:34.469Z,96310.81
2022-08-03T06:11:01.200Z,96320.28
2022-08-03T06:13:27.879Z,96321.50
2022-08-03T06:15:54.537Z,96313.00
2022-08-03T06:18:21.325Z,96321.72
2022-08-03T06:20:49.441Z,96329.16
2022-08-03T06:23:18.525Z,96324.31
2022-08-03T06:25:45.986Z,96323.75
2022-08-03T06:28:42.371Z,96320.41
2022-08-03T06:31:01.512Z,96328.22
2022-08-03T06:34:30.651Z,96326.38
2022-08-03T06:36:15.460Z,96327.69
2022-08-03T06:38:42.208Z,96318.09
2022-08-03T06:41:08.875Z,96328.66
2022-08-03T06:44:02.596Z,96326.63
2022-08-03T06:46:25.901Z,96328.63
2022-08-03T06:48:52.998Z,96336.13
2022-08-03T06:51:19.862Z,96332.69
2022-08-03T06:53:46.540Z,96333.72
2022-08-03T06:56:13.438Z,96329.41
2022-08-03T06:58:40.211Z,96331.69
2022-08-03T07:01:06.919Z,96332.91
2022-08-03T07:03:33.663Z,96333.91
2022-08-03T07:06:00.332Z,96334.13
2022-08-03T07:08:33.495Z,96327.53
2022-08-03T07:11:01.130Z,96327.53
2022-08-03T07:13:27.838Z,96329.91
2022-08-03T07:15:56.072Z,96335.34
2022-08-03T07:18:29.158Z,96335.59
2022-08-03T07:20:59.787Z,96334.47
2022-08-03T07:23:26.476Z,96330.28
2022-08-03T07:25:53.325Z,96330.22
2022-08-03T07:28:20.398Z,96326.13
2022-08-03T07:30:47.273Z,96325.31
2022-08-03T07:33:15.193Z,96325.84
2022-08-03T07:35:42.529Z,96327.84
2022-08-03T07:38:09.236Z,96318.69
2022-08-03T07:40:36.032Z,96321.88
2022-08-03T07:43:03.615Z,96316.34
2022-08-03T07:45:31.405Z,96321.53
2022-08-03T07:47:58.316Z,96313.13
2022-08-03T07:50:25.020Z,96317.88
2022-08-03T07:52:53.142Z,96311.72
2022-08-03T07:55:24.347Z,96316.13
2022-08-03T07:58:09.965Z,96312.38
2022-08-03T08:00:36.979Z,96322.19
2022-08-03T08:03:04.848Z,96315.56
2022-08-03T08:05:31.768Z,96320.38
2022-08-03T08:07:58.552Z,96312.72
2022-08-03T08:10:25.392Z,96310.28
2022-08-03T08:12:52.490Z,96314.31
2022-08-03T08:15:19.191Z,96319.06
2022-08-03T08:17:54.075Z,96317.97
2022-08-03T08:20:30.849Z,96307.41
2022-08-03T08:23:13.919Z,96320.34
2022-08-03T08:25:52.226Z,96318.34
2022-08-03T08:28:32.482Z,96315.25
2022-08-03T08:31:00.653Z,96311.38
2022-08-03T08:33:37.361Z,96314.91
2022-08-03T08:36:15.626Z,96305.06
2022-08-03T08:38:44.687Z,96305.03
2022-08-03T08:41:13.122Z,96304.16
2022-08-03T08:43:40.090Z,96306.38
2022-08-03T08:46:08.551Z,96296.03
2022-08-03T08:48:36.444Z,96294.38
2022-08-03T08:51:03.399Z,96305.22
2022-08-03T08:53:32.858Z,96305.03
2022-08-03T08:56:02.302Z,96302.41
2022-08-03T08:58:33.034Z,96303.22
2022-08-03T09:00:59.884Z,96295.72
2022-08-03T09:03:30.025Z,96289.34
2022-08-03T09:05:59.354Z,96292.28
2022-08-03T09:08:26.430Z,96294.97
2022-08-03T09:10:53.066Z,96293.66
2022-08-03T09:13:19.760Z,96292.13
2022-08-03T09:15:57.171Z,96286.59
2022-08-03T09:18:32.809Z,96288.84
2022-08-03T09:21:34.146Z,96288.56
2022-08-03T09:24:05.865Z,96282.13
2022-08-03T09:26:38.092Z,96279.75
2022-08-03T09:29:14.531Z,96287.56
2022-08-03T09:31:46.941Z,96284.16
2022-08-03T09:34:18.260Z,96283.19
2022-08-03T09:36:47.621Z,96286.25
2022-08-03T09:39:41.560Z,96289.69
2022-08-03T09:42:11.647Z,96281.44
2022-08-03T09:44:44.423Z,96285.56
2022-08-03T09:47:12.734Z,96278.69
2022-08-03T09:49:44.435Z,96281.03
2022-08-03T09:52:38.015Z,96283.03
2022-08-03T09:56:31.652Z,96279.81
2022-08-03T09:58:06.489Z,96266.81
2022-08-03T10:00:33.131Z,96270.41
2022-08-03T10:03:05.856Z,96273.31
2022-08-03T10:05:33.271Z,96268.16
2022-08-03T10:07:59.914Z,96256.94
2022-08-03T10:10:31.160Z,96261.09
2022-08-03T10:13:00.326Z,96258.00
2022-08-03T10:16:23.556Z,96258.47
2022-08-03T10:18:14.522Z,96254.22
2022-08-03T10:20:49.831Z,96250.94
2022-08-03T10:23:18.207Z,96252.31
2022-08-03T10:25:48.473Z,96250.59
2022-08-03T10:28:18.425Z,96250.50
2022-08-03T10:30:50.335Z,96243.66
2022-08-03T10:33:52.044Z,96239.63
2022-08-03T10:36:15.013Z,96235.88
2022-08-03T10:38:47.368Z,96236.19
2022-08-03T10:41:16.896Z,96235.63
2022-08-03T10:43:50.595Z,96236.50
2022-08-03T10:46:21.374Z,96231.81
2022-08-03T10:48:51.755Z,96221.56
2022-08-03T10:51:20.146Z,96220.59
2022-08-03T10:53:55.074Z,96227.19
2022-08-03T10:56:53.472Z,96223.91
2022-08-03T10:59:46.264Z,96215.13
2022-08-03T11:02:14.384Z,96211.47
2022-08-03T11:04:41.945Z,96211.47
2022-08-03T11:07:24.544Z,96214.56
2022-08-03T11:09:52.030Z,96210.13
2022-08-03T11:12:30.437Z,96209.38
2022-08-03T11:15:04.943Z,96211.81
2022-08-03T11:17:33.817Z,96205.22
2022-08-03T11:20:13.835Z,96202.16
2022-08-03T11:23:01.108Z,96207.38
2022-08-03T11:25:53.880Z,96199.91
2022-08-03T11:28:28.680Z,96202.91
2022-08-03T11:30:55.516Z,96201.13
2022-08-03T11:33:31.796Z,96201.34
2022-08-03T11:36:02.317Z,96204.34
2022-08-03T11:38:29.075Z,96199.00
2022-08-03T11:40:55.740Z,96203.50
2022-08-03T11:43:22.427Z,96204.41
2022-08-03T11:46:28.260Z,96192.63
2022-08-03T11:49:09.758Z,96193.50
2022-08-03T11:51:37.944Z,96188.59
2022-08-03T11:54:06.312Z,96194.56
2022-08-03T11:56:47.832Z,96188.47
2022-08-03T11:59:20.269Z,96183.03
2022-08-03T12:01:47.737Z,96188.47
2022-08-03T12:04:16.417Z,96187.75
2022-08-03T12:06:58.732Z,96185.16
2022-08-03T12:09:25.400Z,96179.50
2022-08-03T12:12:00.435Z,96181.19
2022-08-03T12:14:50.625Z,96185.25
2022-08-03T12:17:16.556Z,96170.78
2022-08-03T12:19:44.073Z,96173.97
2022-08-03T12:22:10.945Z,96170.53
2022-08-03T12:24:46.863Z,96164.72
2022-08-03T12:27:23.739Z,96164.69
2022-08-03T12:29:58.638Z,96169.38
2022-08-03T12:32:26.592Z,96172.84
2022-08-03T12:34:53.504Z,96167.94
2022-08-03T12:37:23.264Z,96165.47
2022-08-03T12:40:02.056Z,96163.59
2022-08-03T12:42:37.515Z,96158.00
2022-08-03T12:45:23.519Z,96156.13
2022-08-03T12:48:01.750Z,96152.28
2022-08-03T12:50:33.846Z,96160.50
2022-08-03T12:53:04.649Z,96154.56
2022-08-03T12:55:40.199Z,96156.44
2022-08-03T12:58:36.187Z,96156.75
2022-08-03T13:01:09.746Z,96157.06
2022-08-03T13:03:55.867Z,96142.94
2022-08-03T13:06:26.572Z,96143.72
2022-08-03T13:09:07.375Z,96147.47
2022-08-03T13:11:55.929Z,96137.53
2022-08-03T13:14:23.695Z,96136.84
2022-08-03T13:16:50.592Z,96125.63
2022-08-03T13:19:17.299Z,96139.47
2022-08-03T13:22:01.904Z,96134.47
2022-08-03T13:24:32.570Z,96129.81
2022-08-03T13:27:00.163Z,96138.41
2022-08-03T13:29:26.835Z,96125.97
2022-08-03T13:31:53.764Z,96128.69
2022-08-03T13:34:23.609Z,96125.81
2022-08-03T13:37:09.284Z,96127.94
2022-08-03T13:39:57.725Z,96126.72
2022-08-03T13:42:23.579Z,96124.00
2022-08-03T13:44:50.882Z,96119.06
2022-08-03T13:47:17.749Z,96123.75
2022-08-03T13:49:56.949Z,96119.25
2022-08-03T13:52:29.989Z,96113.47
2022-08-03T13:54:56.698Z,96111.66
2022-08-03T13:58:04.732Z,96113.91
2022-08-03T14:00:12.138Z,96111.06
2022-08-03T14:02:38.915Z,96112.16
2022-08-03T14:05:05.883Z,96099.63
2022-08-03T14:07:32.561Z,96104.94
2022-08-03T14:09:59.245Z,96101.19
2022-08-03T14:12:25.898Z,96103.72
2022-08-03T14:14:52.557Z,96100.00
2022-08-03T14:17:19.817Z,96094.91
2022-08-03T14:19:53.229Z,96102.69
2022-08-03T14:22:20.837Z,96104.09
2022-08-03T14:24:47.503Z,96096.84
2022-08-03T14:27:15.815Z,96089.78
2022-08-03T14:29:42.506Z,96094.50
2022-08-03T14:32:12.513Z,96094.69
2022-08-03T14:34:40.094Z,96090.66
2022-08-03T14:37:06.759Z,96097.72
2022-08-03T14:42:20.528Z,96083.31
2022-08-03T14:44:47.685Z,96081.81
2022-08-03T14:47:14.643Z,96085.00
2022-08-03T14:50:31.009Z,96085.63
2022-08-03T14:52:28.463Z,96072.16
2022-08-03T14:54:55.157Z,96078.31
2022-08-03T14:57:22.218Z,96073.41
2022-08-03T14:59:56.635Z,96073.94
2022-08-03T15:02:25.468Z,96073.72
2022-08-03T15:04:52.913Z,96070.56
2022-08-03T15:07:20.984Z,96070.69
2022-08-03T15:09:48.014Z,96073.06
2022-08-03T15:12:14.674Z,96074.97
2022-08-03T15:14:41.352Z,96071.66
2022-08-03T15:17:08.220Z,96074.81
2022-08-03T15:20:01.408Z,96075.50
2022-08-03T15:22:25.129Z,96075.72
2022-08-03T15:24:52.368Z,96071.41
2022-08-03T15:27:19.369Z,96070.19
2022-08-03T15:30:09.460Z,96068.63
2022-08-03T15:32:34.175Z,96064.50
2022-08-03T15:35:01.428Z,96075.50
2022-08-03T15:37:28.437Z,96065.94
2022-08-03T15:39:59.603Z,96075.72
2022-08-03T15:42:31.151Z,96067.22
2022-08-03T15:44:58.150Z,96061.31
2022-08-03T15:47:24.989Z,96059.44
2022-08-03T15:49:51.680Z,96062.88
2022-08-03T15:52:18.360Z,96061.31
2022-08-03T15:54:44.995Z,96064.63
2022-08-03T15:57:11.761Z,96057.63
2022-08-03T15:59:38.474Z,96067.78
2022-08-03T16:02:05.213Z,96058.34
2022-08-03T16:04:31.847Z,96057.69
2022-08-03T16:06:58.501Z,96061.09
2022-08-03T16:09:43.082Z,96054.88
2022-08-03T16:12:14.612Z,96056.16
2022-08-03T16:14:52.371Z,96058.16
2022-08-03T16:17:20.493Z,96055.06
2022-08-03T16:19:47.470Z,96047.16
2022-08-03T16:22:14.510Z,96054.59
2022-08-03T16:24:41.485Z,96046.09
2022-08-03T16:27:37.419Z,96041.28
2022-08-03T16:29:55.237Z,96039.88
2022-08-03T16:32:21.935Z,96041.59
2022-08-03T16:34:48.648Z,96046.72
2022-08-03T16:37:37.479Z,96039.28
2022-08-03T16:40:03.446Z,96047.66
2022-08-03T16:42:30.220Z,96046.91
2022-08-03T16:44:56.868Z,96045.50
2022-08-03T16:47:23.597Z,96047.66
2022-08-03T16:49:53.275Z,96044.88
2022-08-03T16:52:23.890Z,96059.91
2022-08-03T16:54:53.610Z,96050.59
2022-08-03T16:57:29.897Z,96054.16
2022-08-03T17:00:33.792Z,96049.34
2022-08-03T17:03:04.426Z,96052.09
2022-08-03T17:05:47.377Z,96046.50
2022-08-03T17:08:27.116Z,96058.09
2022-08-03T17:10:54.834Z,96053.59
2022-08-03T17:13:22.801Z,96057.88
2022-08-03T17:16:01.361Z,96057.72
2022-08-03T17:18:35.535Z,96052.72
2022-08-03T17:21:05.954Z,96061.28
2022-08-03T17:23:45.718Z,96062.59
2022-08-03T17:26:21.547Z,96067.50
2022-08-03T17:28:57.301Z,96068.13
2022-08-03T17:31:31.865Z,96070.69
2022-08-03T17:34:01.709Z,96075.81
2022-08-03T17:37:01.646Z,96068.13
2022-08-03T17:39:30.783Z,96070.03
2022-08-03T17:42:31.218Z,96073.72
2022-08-03T17:44:55.722Z,96076.59
2022-08-03T17:47:23.045Z,96076.53
2022-08-03T17:49:56.979Z,96070.63
2022-08-03T17:52:34.432Z,96076.19
2022-08-03T17:55:55.011Z,96077.03
2022-08-03T17:58:15.396Z,96081.53
2022-08-03T18:01:05.160Z,96082.09
2022-08-03T18:03:59.247Z,96086.38
2022-08-03T18:06:37.001Z,96091.94
2022-08-03T18:09:05.342Z,96093.06
2022-08-03T18:11:58.092Z,96097.97
2022-08-03T18:14:38.310Z,96099.53
2022-08-03T18:17:15.627Z,96098.53
2022-08-03T18:20:01.967Z,96099.53
2022-08-03T18:22:32.164Z,96097.53
2022-08-03T18:25:07.716Z,96099.22
2022-08-03T18:27:45.912Z,96095.41
2022-08-03T18:30:15.474Z,96097.75
2022-08-03T18:33:00.730Z,96097.78
2022-08-03T18:35:52.710Z,96101.56
2022-08-03T18:38:18.773Z,96099.19
2022-08-03T18:40:48.730Z,96107.84
2022-08-03T18:43:17.599Z,96109.03
2022-08-03T18:45:57.385Z,96109.47
2022-08-03T18:48:49.065Z,96112.63
2022-08-03T18:51:28.788Z,96118.09
2022-08-03T18:54:45.434Z,96117.44
2022-08-03T18:57:18.721Z,96124.44
2022-08-03T19:00:17.454Z,96130.19
2022-08-03T19:03:02.476Z,96126.75
2022-08-03T19:05:49.330Z,96134.38
2022-08-03T19:08:33.440Z,96132.63
2022-08-03T19:11:05.885Z,96136.94
2022-08-03T19:13:44.429Z,96140.34
2022-08-03T19:16:42.043Z,96142.53
2022-08-03T19:19:11.098Z,96141.72
2022-08-03T19:21:44.550Z,96147.41
2022-08-03T19:24:13.580Z,96147.03
2022-08-03T19:26:42.543Z,96142.47
2022-08-03T19:29:16.812Z,96141.00
2022-08-03T19:31:59.004Z,96147.38
2022-08-03T19:34:27.639Z,96147.50
2022-08-03T19:36:55.585Z,96152.66
2022-08-03T19:39:24.398Z,96145.75
2022-08-03T19:41:56.371Z,96150.25
2022-08-03T19:44:29.280Z,96150.69
2022-08-03T19:47:11.200Z,96147.66
2022-08-03T19:49:59.949Z,96160.25
2022-08-03T19:52:35.595Z,96160.78
2022-08-03T19:55:12.311Z,96163.16
2022-08-03T19:57:42.444Z,96167.22
2022-08-03T20:00:13.903Z,96159.50
2022-08-03T20:02:41.454Z,96162.00
2022-08-03T20:05:12.047Z,96161.38
2022-08-03T20:07:47.891Z,96161.56
2022-08-03T20:10:16.743Z,96156.16
2022-08-03T20:12:44.955Z,96158.94
2022-08-03T20:15:12.078Z,96158.69
2022-08-03T20:17:57.086Z,96166.25
2022-08-03T20:20:32.709Z,96170.44
2022-08-03T20:23:06.941Z,96159.88
2022-08-03T20:25:48.737Z,96165.53
2022-08-03T20:28:35.328Z,96159.19
2022-08-03T20:31:25.191Z,96160.13
2022-08-03T20:34:00.608Z,96159.44
2022-08-03T20:36:27.647Z,96157.16
2022-08-03T20:38:57.696Z,96162.31
2022-08-03T20:41:25.133Z,96164.53
2022-08-03T20:43:51.883Z,96158.25
2022-08-03T20:46:29.640Z,96163.00
2022-08-03T20:49:06.134Z,96155.91
2022-08-03T20:51:50.678Z,96164.72
2022-08-03T20:54:28.948Z,96161.97
2022-08-03T20:56:57.980Z,96160.09
2022-08-03T20:59:36.937Z,96153.00
2022-08-03T21:02:19.536Z,96162.09
2022-08-03T21:04:56.224Z,96162.50
2022-08-03T21:07:24.585Z,96166.47
2022-08-03T21:10:13.753Z,96168.13
2022-08-03T21:13:14.914Z,96162.94
2022-08-03T21:16:02.980Z,96162.63
2022-08-03T21:18:37.330Z,96166.97
2022-08-03T21:21:06.273Z,96161.13
2022-08-03T21:23:48.145Z,96165.09
2022-08-03T21:26:23.699Z,96169.06
2022-08-03T21:28:52.133Z,96170.25
2022-08-03T21:31:24.322Z,96162.00
2022-08-03T21:33:57.029Z,96164.38
2022-08-03T21:36:28.190Z,96170.69
2022-08-03T21:38:57.300Z,96177.75
2022-08-03T21:41:26.552Z,96174.22
2022-08-03T21:43:53.466Z,96176.19
2022-08-03T21:46:21.844Z,96176.97
2022-08-03T21:48:54.566Z,96177.38
2022-08-03T21:51:24.554Z,96172.25
2022-08-03T21:54:02.441Z,96177.38
2022-08-03T21:56:42.042Z,96174.22
2022-08-03T21:59:16.446Z,96175.41
2022-08-03T22:01:45.654Z,96176.94
2022-08-03T22:04:55.128Z,96184.78
2022-08-03T22:07:05.379Z,96175.34
2022-08-03T22:09:34.245Z,96170.63
2022-08-03T22:12:00.993Z,96166.72
2022-08-03T22:14:27.838Z,96170.63
2022-08-03T22:16:55.332Z,96170.59
2022-08-03T22:19:22.047Z,96176.09
2022-08-03T22:21:49.403Z,96172.56
2022-08-03T22:24:24.039Z,96177.63
2022-08-03T22:27:09.915Z,96174.09
2022-08-03T22:29:39.817Z,96174.78
2022-08-03T22:32:06.872Z,96183.00
2022-08-03T22:34:34.375Z,96177.94
2022-08-03T22:37:03.640Z,96181.44
2022-08-03T22:39:31.487Z,96184.53
2022-08-03T22:42:01.617Z,96183.75
2022-08-03T22:44:28.437Z,96183.72
2022-08-03T22:46:56.167Z,96175.84
2022-08-03T22:49:22.944Z,96179.38
2022-08-03T22:51:52.008Z,96178.94
2022-08-03T22:54:19.112Z,96178.03
2022-08-03T22:56:50.365Z,96178.44
2022-08-03T22:59:41.006Z,96179.56
2022-08-03T23:02:15.134Z,96181.00
2022-08-03T23:04:51.675Z,96179.75
2022-08-03T23:07:30.946Z,96180.00
2022-08-03T23:09:58.383Z,96177.72
2022-08-03T23:12:25.382Z,96176.56
2022-08-03T23:14:55.412Z,96181.19
2022-08-03T23:17:23.971Z,96180.34
2022-08-03T23:19:52.777Z,96179.91
2022-08-03T23:22:30.289Z,96178.38
2022-08-03T23:24:58.578Z,96183.09
2022-08-03T23:27:27.413Z,96175.25
2022-08-03T23:29:54.349Z,96177.59
2022-08-03T23:32:21.202Z,96189.22
2022-08-03T23:35:09.098Z,96189.22
2022-08-03T23:38:03.926Z,96181.22
2022-08-03T23:40:29.551Z,96185.78
2022-08-03T23:42:58.254Z,96177.56
2022-08-03T23:45:27.600Z,96177.03
2022-08-03T23:47:54.442Z,96174.72
2022-08-03T23:50:21.620Z,96178.19
2022-08-03T23:53:15.196Z,96172.38
2022-08-03T23:56:01.115Z,96178.88
2022-08-03T23:58:48.957Z,96174.56
